Terminal Aerodrome Forecast
Issued by NWS Grand Junction, CO

Home | Current Version | Previous Version | Text Only | Print | Product List | Glossary On
Versions: 1 2 3 4 5 6 7 8 9 10 11 12 13 14 15
000
FTUS45 KGJT 191131
TAFGJT
TAF
KGJT 191131Z 1912/2012 11010KT P6SM FEW130
     FM191700 15006KT P6SM FEW120
     FM192000 29008KT P6SM SCT120
     FM200200 09009KT P6SM FEW120 SCT250=

USA.gov is the U.S. government's official web portal to all federal, state and local government web resources and services.